Coffs Harbour, Australia
Current Conditions -  °F | °C
As of 3:00 PM on Monday 20 Oct 2014 (Local Time) from YCFS Reporting Station
Clear Clear  
Wind Chill: 73°   Ceiling: Unl
Heat Index: 73°   Visibility: 5mi
Dew Point: 61°   Wind: 28mph
Humidity: 65%   Direction: 170°S
Pressure: 30.27"   Gusts: NA
Location:  30.28°S, 153.13°E
Report Text: YCFS 200400Z AUTO 17024KT 8000 // NCD 23/16 Q1025
Loading
Personal Weather Stations






























Interactive Weather Map
Tropical Storm Tracking
New forecast layout! Learn more

10-Day Weather Forecast

Advertisements
Track Severe Weather on mobile